sensor_id;sensor_type;location;lat;lon;timestamp;pressure;altitude;pressure_sealevel;temperature;humidity
75359;BME280;64046;51.978;5.934;2023-12-14T00:01:46;100783.56;;;11.68;96.71
75359;BME280;64046;51.978;5.934;2023-12-14T00:04:17;100780.06;;;11.50;97.55
75359;BME280;64046;51.978;5.934;2023-12-14T00:06:49;100785.03;;;11.37;98.08
75359;BME280;64046;51.978;5.934;2023-12-14T00:09:23;100798.00;;;11.40;97.69
75359;BME280;64046;51.978;5.934;2023-12-14T00:11:54;100787.84;;;11.51;97.51
75359;BME280;64046;51.978;5.934;2023-12-14T00:14:30;100799.19;;;11.52;97.34
75359;BME280;64046;51.978;5.934;2023-12-14T00:17:06;100817.25;;;11.40;98.05
75359;BME280;64046;51.978;5.934;2023-12-14T00:19:37;100817.97;;;11.25;98.59
75359;BME280;64046;51.978;5.934;2023-12-14T00:22:07;100815.56;;;11.20;98.65
75359;BME280;64046;51.978;5.934;2023-12-14T00:24:37;100818.81;;;11.25;98.89
75359;BME280;64046;51.978;5.934;2023-12-14T00:27:08;100832.38;;;11.16;98.66
75359;BME280;64046;51.978;5.934;2023-12-14T00:29:37;100842.22;;;11.11;98.83
75359;BME280;64046;51.978;5.934;2023-12-14T00:32:09;100851.13;;;11.26;98.51
75359;BME280;64046;51.978;5.934;2023-12-14T00:34:40;100849.25;;;11.11;98.96
75359;BME280;64046;51.978;5.934;2023-12-14T00:37:12;100859.44;;;11.17;98.87
75359;BME280;64046;51.978;5.934;2023-12-14T00:39:42;100868.16;;;11.17;98.41
75359;BME280;64046;51.978;5.934;2023-12-14T00:42:16;100878.16;;;11.28;98.20
75359;BME280;64046;51.978;5.934;2023-12-14T00:44:49;100881.97;;;11.21;98.66
75359;BME280;64046;51.978;5.934;2023-12-14T00:47:21;100877.66;;;11.20;98.45
75359;BME280;64046;51.978;5.934;2023-12-14T00:49:55;100882.19;;;11.16;98.67
75359;BME280;64046;51.978;5.934;2023-12-14T00:52:24;100888.91;;;11.03;98.98
75359;BME280;64046;51.978;5.934;2023-12-14T00:54:55;100893.97;;;11.07;98.92
75359;BME280;64046;51.978;5.934;2023-12-14T00:57:26;100888.72;;;11.27;98.47
75359;BME280;64046;51.978;5.934;2023-12-14T01:00:00;100904.47;;;11.27;98.44
75359;BME280;64046;51.978;5.934;2023-12-14T01:02:32;100909.50;;;11.31;98.57
75359;BME280;64046;51.978;5.934;2023-12-14T01:05:02;100906.72;;;11.15;98.42
75359;BME280;64046;51.978;5.934;2023-12-14T01:07:33;100920.75;;;11.14;97.87
75359;BME280;64046;51.978;5.934;2023-12-14T01:10:03;100916.38;;;11.15;97.56
75359;BME280;64046;51.978;5.934;2023-12-14T01:12:33;100930.84;;;11.03;97.61
75359;BME280;64046;51.978;5.934;2023-12-14T01:15:13;100926.44;;;11.24;96.13
75359;BME280;64046;51.978;5.934;2023-12-14T01:17:59;100925.44;;;11.27;95.13
75359;BME280;64046;51.978;5.934;2023-12-14T01:20:28;100926.94;;;10.93;96.80
75359;BME280;64046;51.978;5.934;2023-12-14T01:23:00;100937.28;;;10.96;96.55
75359;BME280;64046;51.978;5.934;2023-12-14T01:25:30;100924.03;;;10.99;96.64
75359;BME280;64046;51.978;5.934;2023-12-14T01:28:02;100936.91;;;11.05;95.89
75359;BME280;64046;51.978;5.934;2023-12-14T01:30:32;100929.09;;;11.03;95.72
75359;BME280;64046;51.978;5.934;2023-12-14T01:33:20;100940.91;;;11.33;94.35
75359;BME280;64046;51.978;5.934;2023-12-14T01:35:53;100945.47;;;11.08;95.00
75359;BME280;64046;51.978;5.934;2023-12-14T01:38:25;100957.81;;;11.06;94.69
75359;BME280;64046;51.978;5.934;2023-12-14T01:40:56;100961.41;;;11.04;94.51
75359;BME280;64046;51.978;5.934;2023-12-14T01:43:28;100967.56;;;11.03;94.49
75359;BME280;64046;51.978;5.934;2023-12-14T01:46:01;100966.66;;;11.04;94.29
75359;BME280;64046;51.978;5.934;2023-12-14T01:48:33;100974.69;;;11.20;93.58
75359;BME280;64046;51.978;5.934;2023-12-14T01:51:02;100982.31;;;11.05;93.94
75359;BME280;64046;51.978;5.934;2023-12-14T01:53:34;100985.16;;;11.01;94.00
75359;BME280;64046;51.978;5.934;2023-12-14T01:56:04;100990.72;;;11.14;93.93
75359;BME280;64046;51.978;5.934;2023-12-14T01:58:34;100996.41;;;11.03;94.15
75359;BME280;64046;51.978;5.934;2023-12-14T02:01:10;100998.97;;;11.25;93.35
75359;BME280;64046;51.978;5.934;2023-12-14T02:03:51;100996.59;;;11.19;93.04
75359;BME280;64046;51.978;5.934;2023-12-14T02:06:24;101003.44;;;11.02;93.47
75359;BME280;64046;51.978;5.934;2023-12-14T02:08:53;101005.47;;;10.96;93.39
75359;BME280;64046;51.978;5.934;2023-12-14T02:11:22;101001.78;;;11.00;93.55
75359;BME280;64046;51.978;5.934;2023-12-14T02:13:54;101011.56;;;11.17;93.18
75359;BME280;64046;51.978;5.934;2023-12-14T02:16:23;101008.63;;;11.04;93.36
75359;BME280;64046;51.978;5.934;2023-12-14T02:18:55;101019.06;;;11.24;92.82
75359;BME280;64046;51.978;5.934;2023-12-14T02:21:25;101021.59;;;11.07;92.82
75359;BME280;64046;51.978;5.934;2023-12-14T02:23:59;101026.38;;;11.18;92.88
75359;BME280;64046;51.978;5.934;2023-12-14T02:26:28;101030.31;;;11.07;92.86
75359;BME280;64046;51.978;5.934;2023-12-14T02:28:59;101031.69;;;11.16;92.56
75359;BME280;64046;51.978;5.934;2023-12-14T02:31:28;101033.28;;;11.20;92.59
75359;BME280;64046;51.978;5.934;2023-12-14T02:33:58;101038.56;;;11.19;91.87
75359;BME280;64046;51.978;5.934;2023-12-14T02:36:27;101054.28;;;11.19;91.94
75359;BME280;64046;51.978;5.934;2023-12-14T02:38:59;101058.19;;;11.31;91.10
75359;BME280;64046;51.978;5.934;2023-12-14T02:41:29;101055.69;;;11.07;91.76
75359;BME280;64046;51.978;5.934;2023-12-14T02:43:59;101053.84;;;11.09;92.15
75359;BME280;64046;51.978;5.934;2023-12-14T02:46:29;101056.47;;;11.09;92.01
75359;BME280;64046;51.978;5.934;2023-12-14T02:48:59;101068.66;;;11.10;92.30
75359;BME280;64046;51.978;5.934;2023-12-14T02:51:29;101067.53;;;11.16;91.94
75359;BME280;64046;51.978;5.934;2023-12-14T02:54:02;101081.59;;;11.35;91.08
75359;BME280;64046;51.978;5.934;2023-12-14T02:56:40;101087.47;;;11.20;90.76
75359;BME280;64046;51.978;5.934;2023-12-14T02:59:10;101085.19;;;11.12;91.05
75359;BME280;64046;51.978;5.934;2023-12-14T03:01:41;101087.94;;;11.30;90.42
75359;BME280;64046;51.978;5.934;2023-12-14T03:04:14;101088.16;;;11.25;90.10
75359;BME280;64046;51.978;5.934;2023-12-14T03:06:43;101094.19;;;11.06;90.38
75359;BME280;64046;51.978;5.934;2023-12-14T03:09:19;101093.63;;;11.19;89.89
75359;BME280;64046;51.978;5.934;2023-12-14T03:11:52;101106.69;;;11.00;90.24
75359;BME280;64046;51.978;5.934;2023-12-14T03:14:25;101110.22;;;10.99;90.06
75359;BME280;64046;51.978;5.934;2023-12-14T03:16:55;101121.78;;;11.15;89.79
75359;BME280;64046;51.978;5.934;2023-12-14T03:19:25;101111.91;;;11.00;89.98
75359;BME280;64046;51.978;5.934;2023-12-14T03:21:54;101118.63;;;11.07;90.01
75359;BME280;64046;51.978;5.934;2023-12-14T03:24:29;101123.22;;;11.22;89.38
75359;BME280;64046;51.978;5.934;2023-12-14T03:26:58;101123.94;;;11.05;89.22
75359;BME280;64046;51.978;5.934;2023-12-14T03:29:28;101129.31;;;11.02;89.38
75359;BME280;64046;51.978;5.934;2023-12-14T03:31:58;101133.66;;;11.03;89.41
75359;BME280;64046;51.978;5.934;2023-12-14T03:34:27;101126.81;;;10.99;89.38
75359;BME280;64046;51.978;5.934;2023-12-14T03:36:58;101127.66;;;11.00;89.03
75359;BME280;64046;51.978;5.934;2023-12-14T03:39:30;101128.81;;;11.15;88.47
75359;BME280;64046;51.978;5.934;2023-12-14T03:41:59;101120.03;;;10.94;88.92
75359;BME280;64046;51.978;5.934;2023-12-14T03:44:30;101120.88;;;10.94;88.83
75359;BME280;64046;51.978;5.934;2023-12-14T03:47:00;101130.53;;;10.94;88.64
75359;BME280;64046;51.978;5.934;2023-12-14T03:49:31;101133.50;;;11.06;88.46
75359;BME280;64046;51.978;5.934;2023-12-14T03:52:08;101137.59;;;10.91;88.11
75359;BME280;64046;51.978;5.934;2023-12-14T03:54:40;101145.72;;;11.07;88.08
75359;BME280;64046;51.978;5.934;2023-12-14T03:57:09;101150.53;;;10.96;88.27
75359;BME280;64046;51.978;5.934;2023-12-14T03:59:39;101146.81;;;11.02;88.12
75359;BME280;64046;51.978;5.934;2023-12-14T04:02:09;101162.59;;;11.00;87.99
75359;BME280;64046;51.978;5.934;2023-12-14T04:04:41;101150.63;;;10.93;88.36
75359;BME280;64046;51.978;5.934;2023-12-14T04:07:11;101157.31;;;11.02;88.18
75359;BME280;64046;51.978;5.934;2023-12-14T04:09:44;101153.66;;;11.27;87.20
75359;BME280;64046;51.978;5.934;2023-12-14T04:12:18;101165.13;;;11.24;86.80
75359;BME280;64046;51.978;5.934;2023-12-14T04:14:50;101164.31;;;11.01;87.22
75359;BME280;64046;51.978;5.934;2023-12-14T04:17:19;101168.75;;;10.99;87.30
75359;BME280;64046;51.978;5.934;2023-12-14T04:19:49;101173.06;;;11.00;87.08
75359;BME280;64046;51.978;5.934;2023-12-14T04:22:19;101171.38;;;10.99;87.17
75359;BME280;64046;51.978;5.934;2023-12-14T04:24:53;101162.09;;;11.13;86.44
75359;BME280;64046;51.978;5.934;2023-12-14T04:27:23;101167.13;;;10.97;87.01
75359;BME280;64046;51.978;5.934;2023-12-14T04:29:56;101178.50;;;11.18;87.04
75359;BME280;64046;51.978;5.934;2023-12-14T04:32:25;101181.28;;;11.13;86.31
75359;BME280;64046;51.978;5.934;2023-12-14T04:34:55;101181.44;;;11.10;86.14
75359;BME280;64046;51.978;5.934;2023-12-14T04:37:26;101186.78;;;11.29;85.64
75359;BME280;64046;51.978;5.934;2023-12-14T04:40:01;101188.13;;;11.39;85.21
75359;BME280;64046;51.978;5.934;2023-12-14T04:42:30;101198.19;;;11.28;85.75
75359;BME280;64046;51.978;5.934;2023-12-14T04:45:00;101210.22;;;11.34;85.36
75359;BME280;64046;51.978;5.934;2023-12-14T04:47:29;101220.03;;;11.29;85.18
75359;BME280;64046;51.978;5.934;2023-12-14T04:49:59;101225.34;;;11.27;85.33
75359;BME280;64046;51.978;5.934;2023-12-14T04:52:29;101226.31;;;11.24;85.14
75359;BME280;64046;51.978;5.934;2023-12-14T04:55:02;101235.47;;;11.36;85.20
75359;BME280;64046;51.978;5.934;2023-12-14T04:57:37;101234.38;;;11.42;84.57
75359;BME280;64046;51.978;5.934;2023-12-14T05:00:08;101242.97;;;11.23;85.18
75359;BME280;64046;51.978;5.934;2023-12-14T05:02:37;101246.22;;;11.08;85.15
75359;BME280;64046;51.978;5.934;2023-12-14T05:05:26;101254.81;;;11.34;83.98
75359;BME280;64046;51.978;5.934;2023-12-14T05:07:59;101254.31;;;11.24;85.00
75359;BME280;64046;51.978;5.934;2023-12-14T05:10:32;101263.91;;;11.25;85.15
75359;BME280;64046;51.978;5.934;2023-12-14T05:13:03;101272.63;;;11.25;85.20
75359;BME280;64046;51.978;5.934;2023-12-14T05:15:34;101277.22;;;11.20;85.00
75359;BME280;64046;51.978;5.934;2023-12-14T05:18:08;101285.63;;;11.06;85.08
75359;BME280;64046;51.978;5.934;2023-12-14T05:20:39;101288.50;;;10.99;85.45
75359;BME280;64046;51.978;5.934;2023-12-14T05:23:09;101304.16;;;11.02;85.16
75359;BME280;64046;51.978;5.934;2023-12-14T05:25:41;101297.38;;;11.18;84.66
75359;BME280;64046;51.978;5.934;2023-12-14T05:28:13;101300.66;;;11.01;84.68
75359;BME280;64046;51.978;5.934;2023-12-14T05:30:43;101307.50;;;11.05;84.53
75359;BME280;64046;51.978;5.934;2023-12-14T05:33:12;101295.34;;;11.03;84.52
75359;BME280;64046;51.978;5.934;2023-12-14T05:35:42;101301.34;;;11.06;84.50
75359;BME280;64046;51.978;5.934;2023-12-14T05:38:14;101306.72;;;11.25;84.25
75359;BME280;64046;51.978;5.934;2023-12-14T05:40:46;101313.63;;;11.28;84.07
75359;BME280;64046;51.978;5.934;2023-12-14T05:43:19;101317.97;;;11.29;83.88
75359;BME280;64046;51.978;5.934;2023-12-14T05:45:48;101329.94;;;11.13;84.41
75359;BME280;64046;51.978;5.934;2023-12-14T05:48:18;101332.50;;;11.14;84.22
75359;BME280;64046;51.978;5.934;2023-12-14T05:50:48;101345.41;;;11.20;84.04
75359;BME280;64046;51.978;5.934;2023-12-14T05:53:18;101352.59;;;11.15;83.91
75359;BME280;64046;51.978;5.934;2023-12-14T05:55:50;101356.50;;;11.27;83.71
75359;BME280;64046;51.978;5.934;2023-12-14T05:58:19;101370.31;;;11.08;84.25
75359;BME280;64046;51.978;5.934;2023-12-14T06:00:48;101365.88;;;11.11;84.17
75359;BME280;64046;51.978;5.934;2023-12-14T06:03:18;101377.47;;;11.05;84.27
75359;BME280;64046;51.978;5.934;2023-12-14T06:05:48;101385.28;;;11.06;84.21
75359;BME280;64046;51.978;5.934;2023-12-14T06:08:20;101385.16;;;11.10;84.08
75359;BME280;64046;51.978;5.934;2023-12-14T06:10:52;101389.19;;;11.18;84.09
75359;BME280;64046;51.978;5.934;2023-12-14T06:13:23;101385.88;;;11.13;84.16
75359;BME280;64046;51.978;5.934;2023-12-14T06:15:56;101391.94;;;11.15;84.19
75359;BME280;64046;51.978;5.934;2023-12-14T06:18:29;101398.50;;;11.03;84.51
75359;BME280;64046;51.978;5.934;2023-12-14T06:20:59;101404.06;;;10.94;84.20
75359;BME280;64046;51.978;5.934;2023-12-14T06:23:29;101405.19;;;10.87;84.45
75359;BME280;64046;51.978;5.934;2023-12-14T06:26:02;101408.19;;;11.01;84.33
75359;BME280;64046;51.978;5.934;2023-12-14T06:28:33;101415.81;;;10.84;84.67
75359;BME280;64046;51.978;5.934;2023-12-14T06:31:02;101414.31;;;10.77;84.62
75359;BME280;64046;51.978;5.934;2023-12-14T06:33:34;101418.00;;;10.71;84.69
75359;BME280;64046;51.978;5.934;2023-12-14T06:36:05;101422.97;;;10.79;84.43
75359;BME280;64046;51.978;5.934;2023-12-14T06:38:37;101432.66;;;10.77;84.04
75359;BME280;64046;51.978;5.934;2023-12-14T06:41:19;101426.53;;;10.78;83.44
75359;BME280;64046;51.978;5.934;2023-12-14T06:43:50;101446.13;;;10.66;84.08
75359;BME280;64046;51.978;5.934;2023-12-14T06:46:20;101448.06;;;10.61;83.99
75359;BME280;64046;51.978;5.934;2023-12-14T06:48:51;101456.94;;;10.56;83.63
75359;BME280;64046;51.978;5.934;2023-12-14T06:51:23;101468.13;;;10.62;83.28
75359;BME280;64046;51.978;5.934;2023-12-14T06:54:00;101471.03;;;10.79;82.09
75359;BME280;64046;51.978;5.934;2023-12-14T06:56:32;101462.63;;;10.69;82.13
75359;BME280;64046;51.978;5.934;2023-12-14T06:59:04;101465.81;;;10.52;81.95
75359;BME280;64046;51.978;5.934;2023-12-14T07:01:33;101466.03;;;10.46;81.47
75359;BME280;64046;51.978;5.934;2023-12-14T07:04:05;101464.84;;;10.55;80.84
75359;BME280;64046;51.978;5.934;2023-12-14T07:06:37;101468.28;;;10.30;80.60
75359;BME280;64046;51.978;5.934;2023-12-14T07:09:06;101483.97;;;10.30;80.66
75359;BME280;64046;51.978;5.934;2023-12-14T07:11:41;101489.56;;;10.48;80.07
75359;BME280;64046;51.978;5.934;2023-12-14T07:14:10;101492.78;;;10.28;80.24
75359;BME280;64046;51.978;5.934;2023-12-14T07:16:40;101501.56;;;10.27;80.47
75359;BME280;64046;51.978;5.934;2023-12-14T07:19:11;101506.38;;;10.41;79.95
75359;BME280;64046;51.978;5.934;2023-12-14T07:21:41;101517.94;;;10.33;79.71
75359;BME280;64046;51.978;5.934;2023-12-14T07:24:13;101524.13;;;10.31;79.25
75359;BME280;64046;51.978;5.934;2023-12-14T07:26:46;101523.47;;;10.52;78.98
75359;BME280;64046;51.978;5.934;2023-12-14T07:29:22;101524.91;;;10.61;78.55
75359;BME280;64046;51.978;5.934;2023-12-14T07:31:53;101530.13;;;10.36;78.95
75359;BME280;64046;51.978;5.934;2023-12-14T07:34:25;101522.28;;;10.34;79.01
75359;BME280;64046;51.978;5.934;2023-12-14T07:36:54;101523.09;;;10.36;79.36
75359;BME280;64046;51.978;5.934;2023-12-14T07:39:24;101534.53;;;10.34;79.42
75359;BME280;64046;51.978;5.934;2023-12-14T07:41:56;101541.91;;;10.49;79.50
75359;BME280;64046;51.978;5.934;2023-12-14T07:44:29;101547.63;;;10.34;79.67
75359;BME280;64046;51.978;5.934;2023-12-14T07:47:00;101559.78;;;10.36;79.63
75359;BME280;64046;51.978;5.934;2023-12-14T07:49:29;101559.94;;;10.30;79.58
75359;BME280;64046;51.978;5.934;2023-12-14T07:51:59;101558.38;;;10.25;79.57
75359;BME280;64046;51.978;5.934;2023-12-14T07:54:28;101553.25;;;10.21;79.00
75359;BME280;64046;51.978;5.934;2023-12-14T07:57:01;101558.06;;;10.35;78.48
75359;BME280;64046;51.978;5.934;2023-12-14T07:59:33;101569.41;;;10.36;78.45
75359;BME280;64046;51.978;5.934;2023-12-14T08:02:03;101568.75;;;10.28;78.13
75359;BME280;64046;51.978;5.934;2023-12-14T08:04:33;101587.44;;;10.15;78.36
75359;BME280;64046;51.978;5.934;2023-12-14T08:07:07;101593.72;;;10.10;78.38
75359;BME280;64046;51.978;5.934;2023-12-14T08:09:37;101592.94;;;10.08;78.45
75359;BME280;64046;51.978;5.934;2023-12-14T08:12:09;101601.81;;;10.32;78.30
75359;BME280;64046;51.978;5.934;2023-12-14T08:14:39;101600.38;;;10.21;78.36
75359;BME280;64046;51.978;5.934;2023-12-14T08:17:10;101603.56;;;10.31;78.05
75359;BME280;64046;51.978;5.934;2023-12-14T08:19:41;101615.84;;;10.29;77.62
75359;BME280;64046;51.978;5.934;2023-12-14T08:22:12;101621.75;;;10.37;77.29
75359;BME280;64046;51.978;5.934;2023-12-14T08:24:41;101627.00;;;10.37;77.17
75359;BME280;64046;51.978;5.934;2023-12-14T08:27:14;101628.13;;;10.57;76.38
75359;BME280;64046;51.978;5.934;2023-12-14T08:29:47;101621.25;;;10.53;76.54
75359;BME280;64046;51.978;5.934;2023-12-14T08:32:18;101635.19;;;10.55;76.37
75359;BME280;64046;51.978;5.934;2023-12-14T08:34:47;101636.50;;;10.42;76.27
75359;BME280;64046;51.978;5.934;2023-12-14T08:37:19;101650.53;;;10.39;76.17
75359;BME280;64046;51.978;5.934;2023-12-14T08:39:58;101642.75;;;10.64;75.40
75359;BME280;64046;51.978;5.934;2023-12-14T08:42:31;101645.53;;;10.60;75.81
75359;BME280;64046;51.978;5.934;2023-12-14T08:45:01;101647.81;;;10.42;76.21
75359;BME280;64046;51.978;5.934;2023-12-14T08:47:32;101660.34;;;10.61;75.90
75359;BME280;64046;51.978;5.934;2023-12-14T08:50:01;101667.72;;;10.48;75.91
75359;BME280;64046;51.978;5.934;2023-12-14T08:52:33;101673.31;;;10.65;75.75
75359;BME280;64046;51.978;5.934;2023-12-14T08:55:06;101667.31;;;10.62;75.99
75359;BME280;64046;51.978;5.934;2023-12-14T08:57:38;101678.44;;;10.68;75.63
75359;BME280;64046;51.978;5.934;2023-12-14T09:00:09;101684.84;;;10.60;75.68
75359;BME280;64046;51.978;5.934;2023-12-14T09:02:39;101682.56;;;10.47;75.70
75359;BME280;64046;51.978;5.934;2023-12-14T09:05:11;101678.06;;;10.52;75.80
75359;BME280;64046;51.978;5.934;2023-12-14T09:07:42;101682.56;;;10.49;75.48
75359;BME280;64046;51.978;5.934;2023-12-14T09:10:16;101690.19;;;10.56;75.35
75359;BME280;64046;51.978;5.934;2023-12-14T09:12:48;101702.34;;;10.59;75.25
75359;BME280;64046;51.978;5.934;2023-12-14T09:15:20;101693.53;;;10.62;75.44
75359;BME280;64046;51.978;5.934;2023-12-14T09:17:51;101692.44;;;10.67;75.46
75359;BME280;64046;51.978;5.934;2023-12-14T09:20:23;101697.84;;;10.63;75.46
75359;BME280;64046;51.978;5.934;2023-12-14T09:22:54;101705.09;;;10.83;74.96
75359;BME280;64046;51.978;5.934;2023-12-14T09:25:26;101700.81;;;10.80;74.64
75359;BME280;64046;51.978;5.934;2023-12-14T09:27:59;101704.06;;;10.88;74.45
75359;BME280;64046;51.978;5.934;2023-12-14T09:30:31;101714.22;;;10.71;74.74
75359;BME280;64046;51.978;5.934;2023-12-14T09:33:00;101722.06;;;10.71;74.38
75359;BME280;64046;51.978;5.934;2023-12-14T09:35:32;101722.06;;;10.71;74.35
75359;BME280;64046;51.978;5.934;2023-12-14T09:38:02;101726.47;;;10.70;74.03
75359;BME280;64046;51.978;5.934;2023-12-14T09:40:34;101719.88;;;10.85;73.37
75359;BME280;64046;51.978;5.934;2023-12-14T09:43:10;101727.66;;;10.88;73.19
75359;BME280;64046;51.978;5.934;2023-12-14T09:45:43;101729.78;;;10.76;73.65
75359;BME280;64046;51.978;5.934;2023-12-14T09:48:16;101743.63;;;10.81;73.64
75359;BME280;64046;51.978;5.934;2023-12-14T09:50:49;101751.53;;;10.79;73.75
75359;BME280;64046;51.978;5.934;2023-12-14T09:53:26;101751.00;;;10.68;74.34
75359;BME280;64046;51.978;5.934;2023-12-14T09:55:55;101756.19;;;10.69;74.28
75359;BME280;64046;51.978;5.934;2023-12-14T09:58:27;101760.16;;;10.83;74.49
75359;BME280;64046;51.978;5.934;2023-12-14T10:01:21;101757.28;;;10.92;73.83
75359;BME280;64046;51.978;5.934;2023-12-14T10:04:07;101765.94;;;10.94;74.26
75359;BME280;64046;51.978;5.934;2023-12-14T10:06:39;101767.06;;;10.85;74.83
75359;BME280;64046;51.978;5.934;2023-12-14T10:09:09;101778.00;;;10.70;75.26
75359;BME280;64046;51.978;5.934;2023-12-14T10:11:42;101782.47;;;10.68;75.57
75359;BME280;64046;51.978;5.934;2023-12-14T10:14:23;101784.50;;;10.88;75.08
75359;BME280;64046;51.978;5.934;2023-12-14T10:16:53;101790.50;;;10.62;76.17
75359;BME280;64046;51.978;5.934;2023-12-14T10:19:23;101798.47;;;10.57;76.63
75359;BME280;64046;51.978;5.934;2023-12-14T10:21:53;101796.75;;;10.58;76.41
75359;BME280;64046;51.978;5.934;2023-12-14T10:24:27;101800.19;;;10.58;76.61
75359;BME280;64046;51.978;5.934;2023-12-14T10:26:59;101801.56;;;10.71;76.47
75359;BME280;64046;51.978;5.934;2023-12-14T10:29:32;101811.06;;;10.76;76.60
75359;BME280;64046;51.978;5.934;2023-12-14T10:32:03;101805.16;;;10.67;76.83
75359;BME280;64046;51.978;5.934;2023-12-14T10:34:36;101809.94;;;10.53;77.05
75359;BME280;64046;51.978;5.934;2023-12-14T10:37:10;101805.00;;;10.73;77.00
75359;BME280;64046;51.978;5.934;2023-12-14T10:39:42;101818.91;;;10.76;77.27
75359;BME280;64046;51.978;5.934;2023-12-14T10:42:19;101817.72;;;10.87;76.90
75359;BME280;64046;51.978;5.934;2023-12-14T10:44:54;101822.13;;;10.85;77.25
75359;BME280;64046;51.978;5.934;2023-12-14T10:47:26;101824.94;;;10.79;77.37
75359;BME280;64046;51.978;5.934;2023-12-14T10:49:56;101819.09;;;10.69;77.73
75359;BME280;64046;51.978;5.934;2023-12-14T10:52:30;101829.50;;;10.72;77.73
75359;BME280;64046;51.978;5.934;2023-12-14T10:55:07;101838.19;;;10.75;77.67
75359;BME280;64046;51.978;5.934;2023-12-14T10:57:37;101834.38;;;10.55;78.21
75359;BME280;64046;51.978;5.934;2023-12-14T11:00:10;101831.03;;;10.80;77.74
75359;BME280;64046;51.978;5.934;2023-12-14T11:02:46;101817.75;;;10.86;77.54
75359;BME280;64046;51.978;5.934;2023-12-14T11:05:17;101824.03;;;10.80;77.64
75359;BME280;64046;51.978;5.934;2023-12-14T11:07:53;101817.94;;;10.80;77.76
75359;BME280;64046;51.978;5.934;2023-12-14T11:10:27;101827.53;;;10.81;78.00
75359;BME280;64046;51.978;5.934;2023-12-14T11:13:00;101822.97;;;10.86;77.73
75359;BME280;64046;51.978;5.934;2023-12-14T11:15:34;101822.09;;;10.87;77.59
75359;BME280;64046;51.978;5.934;2023-12-14T11:18:27;101836.66;;;10.97;76.89
75359;BME280;64046;51.978;5.934;2023-12-14T11:21:00;101846.78;;;10.80;78.26
75359;BME280;64046;51.978;5.934;2023-12-14T11:23:35;101858.91;;;10.84;78.31
75359;BME280;64046;51.978;5.934;2023-12-14T11:26:09;101864.00;;;10.88;77.93
75359;BME280;64046;51.978;5.934;2023-12-14T11:28:41;101863.25;;;10.85;78.04
75359;BME280;64046;51.978;5.934;2023-12-14T11:31:16;101853.50;;;10.88;77.96
75359;BME280;64046;51.978;5.934;2023-12-14T11:33:47;101849.53;;;10.75;77.99
75359;BME280;64046;51.978;5.934;2023-12-14T11:36:18;101858.91;;;10.84;77.96
75359;BME280;64046;51.978;5.934;2023-12-14T11:38:49;101864.66;;;10.97;77.76
75359;BME280;64046;51.978;5.934;2023-12-14T11:41:20;101873.94;;;10.77;78.23
75359;BME280;64046;51.978;5.934;2023-12-14T11:43:51;101881.00;;;10.75;78.28
75359;BME280;64046;51.978;5.934;2023-12-14T11:46:25;101877.94;;;10.90;78.13
75359;BME280;64046;51.978;5.934;2023-12-14T11:48:56;101879.78;;;10.87;77.98
75359;BME280;64046;51.978;5.934;2023-12-14T11:51:33;101882.34;;;10.88;78.30
75359;BME280;64046;51.978;5.934;2023-12-14T11:54:04;101884.03;;;10.91;78.21
75359;BME280;64046;51.978;5.934;2023-12-14T11:56:34;101884.94;;;10.90;77.84
75359;BME280;64046;51.978;5.934;2023-12-14T11:59:05;101883.53;;;10.78;77.94
75359;BME280;64046;51.978;5.934;2023-12-14T12:01:37;101893.31;;;11.03;77.68
75359;BME280;64046;51.978;5.934;2023-12-14T12:04:09;101893.53;;;10.95;78.00
75359;BME280;64046;51.978;5.934;2023-12-14T12:06:39;101896.38;;;10.87;78.01
75359;BME280;64046;51.978;5.934;2023-12-14T12:09:10;101885.91;;;10.86;77.42
75359;BME280;64046;51.978;5.934;2023-12-14T12:11:40;101883.09;;;10.94;77.09
75359;BME280;64046;51.978;5.934;2023-12-14T12:14:13;101875.94;;;10.99;76.55
75359;BME280;64046;51.978;5.934;2023-12-14T12:16:46;101872.38;;;11.01;76.09
75359;BME280;64046;51.978;5.934;2023-12-14T12:19:17;101885.91;;;10.86;76.34
75359;BME280;64046;51.978;5.934;2023-12-14T12:21:47;101885.84;;;10.89;76.39
75359;BME280;64046;51.978;5.934;2023-12-14T12:24:22;101881.38;;;10.93;75.88
75359;BME280;64046;51.978;5.934;2023-12-14T12:26:52;101885.13;;;10.84;75.83
75359;BME280;64046;51.978;5.934;2023-12-14T12:29:21;101896.38;;;10.87;75.55
75359;BME280;64046;51.978;5.934;2023-12-14T12:31:53;101898.56;;;11.03;74.82
75359;BME280;64046;51.978;5.934;2023-12-14T12:34:23;101900.72;;;10.88;74.83
75359;BME280;64046;51.978;5.934;2023-12-14T12:36:58;101903.59;;;11.11;73.83
75359;BME280;64046;51.978;5.934;2023-12-14T12:39:28;101895.47;;;10.88;74.16
75359;BME280;64046;51.978;5.934;2023-12-14T12:41:58;101886.59;;;10.93;73.71
75359;BME280;64046;51.978;5.934;2023-12-14T12:44:30;101895.81;;;11.07;73.33
75359;BME280;64046;51.978;5.934;2023-12-14T12:47:03;101906.47;;;11.31;72.46
75359;BME280;64046;51.978;5.934;2023-12-14T12:49:33;101907.47;;;11.27;72.37
75359;BME280;64046;51.978;5.934;2023-12-14T12:52:06;101908.38;;;11.26;72.06
75359;BME280;64046;51.978;5.934;2023-12-14T12:54:35;101905.84;;;11.23;71.68
75359;BME280;64046;51.978;5.934;2023-12-14T12:57:06;101916.94;;;11.33;71.70
75359;BME280;64046;51.978;5.934;2023-12-14T12:59:35;101922.38;;;11.27;71.29
75359;BME280;64046;51.978;5.934;2023-12-14T13:02:07;101915.63;;;11.48;71.20
75359;BME280;64046;51.978;5.934;2023-12-14T13:04:37;101921.22;;;11.35;71.47
75359;BME280;64046;51.978;5.934;2023-12-14T13:07:07;101918.88;;;11.26;71.00
75359;BME280;64046;51.978;5.934;2023-12-14T13:09:38;101929.78;;;11.12;71.09
75359;BME280;64046;51.978;5.934;2023-12-14T13:12:07;101933.25;;;11.13;71.22
75359;BME280;64046;51.978;5.934;2023-12-14T13:14:37;101935.16;;;11.07;70.90